Scroll for more >

River gauges, storages, and weirs in the Murray–Darling Basin

Type Locationsort descending River Water level Flow Volume Release Water temp Salinity Rainfall
River Gauge Albury (Union Bridge) Murray 1.73 m 12/12/2017 14:00 Not measured Not measured Not measured 16.8°C 12/12/2017 14:00 59.7 μS/cm 12/12/2017 14:00 Not measured Full data
River Gauge Balranald Murrumbidgee 2.25 m 12/12/2017 13:45 1895 ML/Day 12/12/2017 13:45 Not measured Not measured 24.9°C 12/12/2017 13:45 109.2 μS/cm 12/12/2017 13:45 Not measured Full data
River Gauge Bandiana Kiewa 1.82 m 12/12/2017 13:45 1696 ML/Day 12/12/2017 13:45 Not measured Not measured 19.7°C 12/12/2017 13:45 8.5 μS/cm 12/12/2017 13:45 Not measured Full data
River Gauge Biggara Murray 0.68 m 12/12/2017 14:00 1082 ML/Day 12/12/2017 14:00 Not measured Not measured 21.1°C 12/12/2017 14:00 43.6 μS/cm 12/12/2017 14:00 0.0 mm 12/12/2017 9:00 Full data
River Gauge Bringenbrong Bridge Murray 1.43 m 12/12/2017 14:00 3297 ML/Day 12/12/2017 14:00 Not measured Not measured Not measured Not measured Not measured Full data
River Gauge Burtundy Darling 0.88 m 12/12/2017 13:45 579 ML/Day 12/12/2017 13:45 Not measured Not measured 28.2°C 12/12/2017 13:45 575.5 μS/cm 12/12/2017 13:45 Not measured Full data
River Gauge Colemans Mitta 0.88 m 12/12/2017 14:30 206 ML/Day 12/12/2017 14:30 Not measured Not measured 15.7°C 12/12/2017 13:45 57.6 μS/cm 12/12/2017 13:45 Not measured Full data
River Gauge Colignan Murray 3.33 m 12/12/2017 13:45 16044 ML/Day 12/12/2017 13:45 Not measured Not measured 25.4°C 12/12/2017 13:45 126.3 μS/cm 12/12/2017 13:45 Not measured Full data
River Gauge Corowa Murray 2.26 m 12/12/2017 14:00 9538 ML/Day 12/12/2017 14:00 Not measured Not measured 22.0°C 12/12/2017 14:00 67.4 μS/cm 12/12/2017 14:00 Not measured Full data
Storage Dartmouth Dam Mitta 479.11 m 12/12/2017 14:30 Not measured 3420 GL 12/12/2017 14:30 Not measured Not measured Not measured Not measured Full data
River Gauge Doctors Point Murray 2.82 m 12/12/2017 14:00 13009 ML/Day 12/12/2017 14:00 Not measured Not measured 16.4°C 12/12/2017 14:00 52.7 μS/cm 12/12/2017 14:00 Not measured Full data
River Gauge Echuca Wharf Murray 88.92 m 12/12/2017 12:45 Not measured Not measured Not measured Not measured Not measured Not measured Full data
River Gauge Edward Escape Wakool 0.07 m 12/12/2017 13:45 15 ML/Day 12/12/2017 13:45 Not measured Not measured 24.3°C 12/12/2017 13:45 36.5 μS/cm 12/12/2017 13:45 Not measured Full data
River Gauge Edward River Offtake Murray 2.31 m 12/12/2017 14:15 1434 ML/Day 12/12/2017 14:15 Not measured Not measured 24.3°C 12/12/2017 13:45 44.6 μS/cm 12/12/2017 13:45 Not measured Full data
Weirs Euston Weir Downstream Murray 44.65 m 12/12/2017 13:45 16572 ML/Day 12/12/2017 13:45 Not measured Not measured 24.1°C 12/12/2017 13:45 94.9 μS/cm 12/12/2017 13:45 Not measured Full data
Weirs Euston Weir Upstream Murray 47.59 m 12/12/2017 7:45 Not measured 37 GL 12/12/2017 7:45 Not measured Not measured Not measured 0.0 mm 11/12/2017 9:00 Full data
River Gauge Flow to South Australia Murray Not measured Not measured Not measured 17086.7 ML/d12/12/2017 7:45 Not measured Not measured Not measured Full data
River Gauge Frenchman Creek Murray 27.39 m 12/12/2017 7:45 Not measured Not measured 5009.5 ML/d12/12/2017 7:45 Not measured Not measured Not measured Full data
River Gauge Gulpa Creek Offtake Murray 2.8 m 12/12/2017 13:45 501 ML/Day 12/12/2017 13:45 Not measured Not measured Not measured Not measured Not measured Full data
River Gauge Hinnomunjie Mitta 0.99 m 12/12/2017 13:45 1238 ML/Day 12/12/2017 13:45 Not measured Not measured 19.0°C 12/12/2017 13:45 50.9 μS/cm 12/12/2017 13:45 0.0 mm 12/12/2017 9:00 Full data
Storage Hume Dam Murray 188.38 m 12/12/2017 14:15 Not measured 2327 GL 12/12/2017 14:15 9656.0 ML/d12/12/2017 8:00 Not measured Not measured 0.0 mm 12/12/2017 9:00 Full data
River Gauge Jingellic Murray 1.51 m 12/12/2017 13:45 3091 ML/Day 12/12/2017 13:45 Not measured Not measured 24.0°C 12/12/2017 13:45 36.8 μS/cm 12/12/2017 13:45 0.0 mm 12/12/2017 9:00 Full data
River Gauge Kerang Loddon 0.45 m 12/12/2017 13:45 364 ML/Day 12/12/2017 13:45 Not measured Not measured 24.6°C 12/12/2017 13:45 207.4 μS/cm 12/12/2017 13:45 Not measured Full data
River Gauge Lake Albert Murray 0.83 m 12/12/2017 5:45 Not measured 284 GL 12/12/2017 5:45 Not measured Not measured Not measured Not measured Full data
River Gauge Lake Alexandrina Murray 0.85 m 12/12/2017 5:45 Not measured 1677 GL 10/12/2017 5:45 Not measured Not measured 683.7 μS/cm 12/12/2017 12:45 Not measured Full data
Storage Lake Victoria Murray 26.84 m 12/12/2017 12:45 Not measured 657 GL 12/12/2017 12:45 Not measured 20.5°C 12/12/2017 12:45 219.1 μS/cm 12/12/2017 12:45 Not measured Full data
Weirs Lock 1 Downstream Murray 1.23 m 12/12/2017 12:45 Not measured Not measured 15383.7 ML/d12/12/2017 7:45 Not measured Not measured Not measured Full data
Weirs Lock 1 Upstream Murray 3.12 m 12/12/2017 12:45 Not measured Not measured Not measured 23.7°C 12/12/2017 12:45 279.7 μS/cm 12/12/2017 12:45 Not measured Full data
Weirs Lock 2 Downstream Murray 4 m 12/12/2017 12:45 Not measured Not measured Not measured Not measured Not measured Not measured Full data
Weirs Lock 2 Upstream Murray 6.11 m 12/12/2017 12:45 Not measured Not measured Not measured 23.6°C 12/12/2017 12:45 273.3 μS/cm 12/12/2017 12:45 Not measured Full data
Weirs Lock 3 Downstream Murray 6.96 m 12/12/2017 12:45 Not measured Not measured Not measured Not measured Not measured Not measured Full data
Weirs Lock 3 Upstream Murray 9.84 m 12/12/2017 12:45 Not measured Not measured Not measured Not measured Not measured Not measured Full data
Weirs Lock 4 Downstream Murray 11.29 m 12/12/2017 12:45 Not measured Not measured Not measured Not measured Not measured Not measured Full data
Weirs Lock 4 Upstream Murray 13.3 m 12/12/2017 12:45 Not measured Not measured Not measured Not measured Not measured Not measured Full data
Weirs Lock 5 Downstream Murray 13.86 m 12/12/2017 12:45 Not measured Not measured Not measured Not measured Not measured Not measured Full data
Weirs Lock 5 Upstream Murray 16.37 m 12/12/2017 12:45 Not measured Not measured Not measured 23.8°C 12/12/2017 12:45 175.8 μS/cm 12/12/2017 12:45 Not measured Full data
Weirs Lock 6 Downstream Murray 17 m 12/12/2017 12:45 Not measured Not measured Not measured Not measured Not measured Not measured Full data
Weirs Lock 6 Upstream Murray 19.3 m 12/12/2017 12:45 Not measured Not measured Not measured 24.7°C 12/12/2017 12:45 178.7 μS/cm 12/12/2017 12:45 Not measured Full data
Weirs Lock 7 Downstream Murray 21.6 m 12/12/2017 12:45 Not measured Not measured Not measured Not measured Not measured Not measured Full data
Weirs Lock 7 Upstream Murray 22.06 m 12/12/2017 12:45 Not measured Not measured Not measured 25.0°C 12/12/2017 12:45 148.4 μS/cm 12/12/2017 12:45 Not measured Full data
Weirs Lock 8 Upstream Murray 24.62 m 12/12/2017 12:45 Not measured Not measured Not measured 24.4°C 12/12/2017 12:45 133.7 μS/cm 12/12/2017 12:45 Not measured Full data
Weirs Lock 9 Downstream Murray 24.94 m 12/12/2017 12:45 Not measured Not measured Not measured Not measured Not measured Not measured Full data
Weirs Lock 9 Upstream Murray 27.41 m 12/12/2017 12:45 Not measured Not measured Not measured 25.6°C 12/12/2017 12:45 139.4 μS/cm 12/12/2017 12:45 Not measured Full data
River Gauge McCoy Bridge Goulburn 3.3 m 12/12/2017 13:45 4472 ML/Day 12/12/2017 13:45 Not measured Not measured 22.9°C 12/12/2017 13:45 132.0 μS/cm 12/12/2017 13:45 Not measured Full data
Storage Menindee Lakes Darling Not measured Not measured 486 GL 12/12/2017 7:45 Not measured Not measured Not measured Not measured Full data
Weirs Mildura Weir downstream Murray 31.39 m 12/12/2017 13:45 Not measured Not measured Not measured 25.0°C 12/12/2017 13:45 127.0 μS/cm 12/12/2017 13:45 Not measured Full data
River Gauge Morgan Downstream Murray Not measured Not measured Not measured 13422.7 ML/d12/12/2017 12:45 Not measured 266.3 μS/cm 12/12/2017 12:45 Not measured Full data
River Gauge Mulwala Canal Murray Not measured Not measured Not measured 2529.8 ML/d12/12/2017 7:45 Not measured Not measured Not measured Full data
River Gauge Mundoo Barrage Murray 0.82 m 12/12/2017 7:45 Not measured Not measured Not measured Not measured Not measured Not measured Full data
River Gauge Murray Bridge Murray 0.8 m 12/12/2017 12:45 Not measured Not measured Not measured 22.2°C 12/12/2017 12:45 380.2 μS/cm 12/12/2017 12:45 Not measured Full data
River Gauge Peechelba Ovens 128.4 m 12/12/2017 7:45 4864 ML/Day 12/12/2017 7:45 Not measured Not measured 20.7°C 11/12/2017 7:45 46.4 μS/cm 11/12/2017 7:45 Not measured Full data
River Gauge Pinegrove Murray 1.32 m 12/12/2017 14:00 521 ML/Day 12/12/2017 14:00 Not measured Not measured 23.0°C 12/12/2017 14:00 62.5 μS/cm 12/12/2017 14:00 0.0 mm 12/12/2017 9:00 Full data
River Gauge Rochester Campaspe 1.74 m 12/12/2017 13:45 97 ML/Day 12/12/2017 13:45 Not measured Not measured 22.8°C 12/12/2017 13:45 419.0 μS/cm 12/12/2017 13:45 0.0 mm 12/12/2017 9:00 Full data
River Gauge Rufus River Murray 21.94 m 12/12/2017 7:45 Not measured Not measured 4422.0 ML/d12/12/2017 7:45 Not measured 228.9 μS/cm 12/12/2017 12:45 Not measured Full data
Weirs Steven's Weir Downstream Wakool 2.45 m 12/12/2017 13:45 2729 ML/Day 12/12/2017 13:45 Not measured Not measured 24.8°C 12/12/2017 13:45 57.2 μS/cm 12/12/2017 13:45 0.0 mm 11/12/2017 9:00 Full data
Weirs Steven's Weir Upstream Wakool 4.66 m 12/12/2017 14:15 Not measured Not measured Not measured Not measured Not measured Not measured Full data
River Gauge Stoney Crossing Murray 1.9 m 12/12/2017 13:45 1929 ML/Day 12/12/2017 13:45 Not measured 1870.5 ML/d12/12/2017 7:45 25.0°C 12/12/2017 13:45 108.5 μS/cm 12/12/2017 13:45 Not measured Full data
River Gauge Swan Hill Murray 3.15 m 12/12/2017 13:45 19043 ML/Day 12/12/2017 13:45 Not measured Not measured 23.8°C 12/12/2017 13:45 143.2 μS/cm 12/12/2017 13:45 Not measured Full data
River Gauge Tallandoon Mitta 1.61 m 12/12/2017 13:45 1070 ML/Day 12/12/2017 13:45 Not measured Not measured 22.3°C 12/12/2017 13:45 23.9 μS/cm 12/12/2017 13:45 Not measured Full data
River Gauge Tauwitchere Barrage Murray 0.84 m 12/12/2017 12:45 Not measured Not measured Not measured Not measured Not measured Not measured Full data
River Gauge Tocumwal Murray 2.65 m 12/12/2017 13:45 12388 ML/Day 12/12/2017 13:45 Not measured Not measured 24.2°C 12/12/2017 13:45 57.5 μS/cm 12/12/2017 13:45 Not measured Full data
River Gauge Torrumbarry Headworks Murray 84.77 m 12/12/2017 13:45 Not measured Not measured 1646.7 ML/d12/12/2017 13:45 Not measured Not measured Not measured Full data
Weirs Torrumbarry Weir Downstream Murray 5.47 m 12/12/2017 13:45 20868 ML/Day 12/12/2017 13:45 Not measured Not measured 22.7°C 12/12/2017 13:45 99.0 μS/cm 12/12/2017 13:45 Not measured Full data
Weirs Torrumbarry Weir Downstream Murray 5.47 m 12/12/2017 13:45 20868 ML/Day 12/12/2017 13:45 Not measured Not measured 22.7°C 12/12/2017 13:45 99.0 μS/cm 12/12/2017 13:45 Not measured Full data
Weirs Torrumbarry Weir Upstream Murray 86.05 m 12/12/2017 13:30 Not measured 37 GL 12/12/2017 7:45 Not measured 22.1°C 12/12/2017 7:45 98.0 μS/cm 12/12/2017 7:45 0.0 mm 11/12/2017 9:00 Full data
Weirs Torrumbarry Weir Upstream Murray 86.05 m 12/12/2017 13:30 Not measured 37 GL 12/12/2017 7:45 Not measured 22.1°C 12/12/2017 7:45 98.0 μS/cm 12/12/2017 7:45 0.0 mm 11/12/2017 9:00 Full data
River Gauge Wakool Canal Wakool 0.66 m 12/12/2017 13:45 Not measured Not measured 599.5 ML/d12/12/2017 8:45 Not measured Not measured Not measured Full data
River Gauge Wakool Junction Murray 5.2 m 12/12/2017 13:45 18466 ML/Day 12/12/2017 13:45 Not measured Not measured 24.4°C 12/12/2017 13:45 138.6 μS/cm 12/12/2017 13:45 Not measured Full data
River Gauge Weir 32 Upstream Darling 1.52 m 12/12/2017 13:45 486 ML/Day 12/12/2017 13:45 Not measured Not measured 23.4°C 12/12/2017 13:45 522.9 μS/cm 12/12/2017 13:45 Not measured Full data
Weirs Wentworth Weir Murray 28.25 m 12/12/2017 13:45 Not measured Not measured 16971.0 ML/d12/12/2017 7:45 Not measured 115.0 μS/cm 12/12/2017 7:45 0.0 mm 11/12/2017 9:00 Full data
River Gauge Wilcania Darling 0.72 m 12/12/2017 13:45 453 ML/Day 12/12/2017 13:45 Not measured Not measured 25.7°C 12/12/2017 13:45 427.1 μS/cm 12/12/2017 13:45 Not measured Full data
River Gauge Yarrawonga Main Channel Murray 123.85 m 12/12/2017 13:45 Not measured Not measured 1198.4 ML/d12/12/2017 7:45 Not measured Not measured Not measured Full data
Weirs Yarrawonga Weir Downstream Murray 1.95 m 12/12/2017 14:00 11944 ML/Day 12/12/2017 14:00 Not measured Not measured 22.1°C 12/12/2017 14:00 112.4 μS/cm 12/12/2017 14:00 Not measured Full data
Weirs Yarrawonga Weir Upstream Murray 124.81 m 12/12/2017 13:45 Not measured Not measured Not measured Not measured Not measured 0.0 mm 12/12/2017 9:00 Full data